Sandpiper — WDG2173 — position and weather

sailwx.info

Track history (hours):
 
Tides and Currents Weather Stations Pressure Air Temp Water Temp Dewpoint Dewpoint Depression Visibility Wind Speed Wind Dir Waves Ship Positions

Sandpiper

Owner: Higman Barge Lines, Inc., Orange, TX. More information available from US FCC via Universal Licensing System and Coast Guard Vessel Documentation Center.

Last reported at 2017-Nov-23 22:39 UTC. Time now 2017-Nov-24 00:22 UTC.
Position N 29°47' W 095°06'.

Length 26 m; draft 3 m.

Type: Towing. MMSI: 367512920.

Date/timePositionNaut miles runAvg speedWind from/ knotsBaromVisibWave heightAir tempDewpointWater temp
2017-Nov-23 22:39N 29°47' W 095°06'0 0.1
2017-Nov-23 22:26N 29°47' W 095°06'0 0.0
2017-Nov-23 21:38N 29°47' W 095°06'0 0.0
2017-Nov-23 19:27N 29°47' W 095°06'1 1.7
2017-Nov-23 19:00N 29°47' W 095°05'1 1.5
2017-Nov-23 18:13N 29°46' W 095°05'2 5.1
2017-Nov-23 17:55N 29°45' W 095°06'2 4.3
2017-Nov-23 17:29N 29°44' W 095°08'0 0.0
2017-Nov-22 22:58N 29°44' W 095°08'0 0.5
2017-Nov-22 22:30N 29°44' W 095°08'0 0.0
2017-Nov-22 22:00N 29°44' W 095°08'0 0.0
2017-Nov-22 21:30N 29°44' W 095°08'0 0.0
2017-Nov-22 21:00N 29°44' W 095°08'0 0.0
2017-Nov-22 20:30N 29°44' W 095°08'1 2.5
2017-Nov-22 20:00N 29°44' W 095°07'  
2017-Nov-19 22:40N 29°46' W 095°05'1 1.4
2017-Nov-19 22:17N 29°46' W 095°05'2 7.3
2017-Nov-19 22:00N 29°44' W 095°07'5 2.5
2017-Nov-19 20:08N 29°45' W 095°12'0 0.0
2017-Nov-19 19:49N 29°45' W 095°12'0 0.0
2017-Nov-19 18:56N 29°45' W 095°12'1 0.1
2017-Nov-18 23:23N 29°45' W 095°11'2 3.5
2017-Nov-18 22:54N 29°44' W 095°09'2 3.6
2017-Nov-18 22:21N 29°44' W 095°07'3 0.4
2017-Nov-18 14:53N 29°47' W 095°05'0 0.0
2017-Nov-18 13:51N 29°47' W 095°05'2 0.2
2017-Nov-18 04:03N 29°45' W 095°06'2 0.1
2017-Nov-17 06:37N 29°44' W 095°08'0 1.3
2017-Nov-17 06:23N 29°44' W 095°08'0 0.5
2017-Nov-17 06:00N 29°44' W 095°08'0 0.0
2017-Nov-17 05:30N 29°44' W 095°08'0 0.0
2017-Nov-17 05:00N 29°44' W 095°08'0 0.0
2017-Nov-17 04:30N 29°44' W 095°08'0 0.0
2017-Nov-17 04:00N 29°44' W 095°08'0 0.0
2017-Nov-17 03:30N 29°44' W 095°08'0 0.0
2017-Nov-17 03:00N 29°44' W 095°08'0 0.0
2017-Nov-17 02:30N 29°44' W 095°08'0 0.0
2017-Nov-17 01:57N 29°44' W 095°08'0 0.0
2017-Nov-17 01:23N 29°44' W 095°08'0 0.0
2017-Nov-17 01:00N 29°44' W 095°08'0 0.0
2017-Nov-17 00:30N 29°44' W 095°08'0 0.0
2017-Nov-17 00:00N 29°44' W 095°08'0 0.5
2017-Nov-16 23:30N 29°44' W 095°08'0 0.5
2017-Nov-16 23:00N 29°44' W 095°08'0 0.0
2017-Nov-16 22:30N 29°44' W 095°08'0 0.0
2017-Nov-16 22:00N 29°44' W 095°08'0 0.0
2017-Nov-16 21:30N 29°44' W 095°08'0 0.0
2017-Nov-16 21:00N 29°44' W 095°08'0 0.0
2017-Nov-16 20:30N 29°44' W 095°08'0 0.0
2017-Nov-16 20:00N 29°44' W 095°08'0 0.0
2017-Nov-16 19:30N 29°44' W 095°08'0 0.0
2017-Nov-16 19:00N 29°44' W 095°08'0 0.0
2017-Nov-16 18:30N 29°44' W 095°08'0 0.0
2017-Nov-16 18:00N 29°44' W 095°08'0 0.0
2017-Nov-16 17:30N 29°44' W 095°08'0 0.0
2017-Nov-16 17:00N 29°44' W 095°08'0 0.0
2017-Nov-16 16:30N 29°44' W 095°08'0 0.0
2017-Nov-16 16:00N 29°44' W 095°08'0 0.0
2017-Nov-16 15:30N 29°44' W 095°08'0 0.0
2017-Nov-16 15:00N 29°44' W 095°08'0 0.0
2017-Nov-16 14:30N 29°44' W 095°08'0 0.0
2017-Nov-16 14:00N 29°44' W 095°08'0 0.0
2017-Nov-16 13:30N 29°44' W 095°08'0 0.0
2017-Nov-16 13:00N 29°44' W 095°08'0 0.0
2017-Nov-16 12:29N 29°44' W 095°08'0 0.0
2017-Nov-16 12:00N 29°44' W 095°08'0 0.0
2017-Nov-16 11:30N 29°44' W 095°08'0 0.0
2017-Nov-16 11:00N 29°44' W 095°08'0 0.0
2017-Nov-16 10:30N 29°44' W 095°08'0 0.0
2017-Nov-16 10:00N 29°44' W 095°08'0 0.0
2017-Nov-16 09:30N 29°44' W 095°08'0 0.0
2017-Nov-16 09:00N 29°44' W 095°08'0 0.0
2017-Nov-16 08:30N 29°44' W 095°08'0 0.0
2017-Nov-16 08:00N 29°44' W 095°08'0 0.0
2017-Nov-16 07:30N 29°44' W 095°08'0 0.0
2017-Nov-16 07:00N 29°44' W 095°08'0 0.0
2017-Nov-16 06:30N 29°44' W 095°08'0 0.0
2017-Nov-16 06:00N 29°44' W 095°08'0 0.0
2017-Nov-16 05:30N 29°44' W 095°08'0 0.0
2017-Nov-16 05:00N 29°44' W 095°08'0 0.0
2017-Nov-16 04:30N 29°44' W 095°08'0 0.0
2017-Nov-16 04:00N 29°44' W 095°08'0 0.0
2017-Nov-16 03:30N 29°44' W 095°08'0 0.0
2017-Nov-16 03:00N 29°44' W 095°08'0 0.0
2017-Nov-16 02:30N 29°44' W 095°08'0 0.0
2017-Nov-16 02:00N 29°44' W 095°08'0 0.0
2017-Nov-16 01:30N 29°44' W 095°08'0 0.0
2017-Nov-16 01:00N 29°44' W 095°08'0 0.0
2017-Nov-15 12:27N 29°44' W 095°08'3 6.4
2017-Nov-15 12:00N 29°46' W 095°05'2 3.2
2017-Nov-15 11:27N 29°47' W 095°05'1 1.2
2017-Nov-15 10:58N 29°47' W 095°05'0 0.0
2017-Nov-13 23:56N 29°47' W 095°06'  
Track history (hours):
 
Tides and Currents Weather Stations Pressure Air Temp Water Temp Dewpoint Dewpoint Depression Visibility Wind Speed Wind Dir Waves Ship Positions

Sandpiper

Owner: Higman Barge Lines, Inc., Orange, TX. More information available from US FCC via Universal Licensing System and Coast Guard Vessel Documentation Center.

Last reported at 2017-Nov-23 22:39 UTC. Time now 2017-Nov-24 00:22 UTC.
Position N 29°47' W 095°06'.

Length 26 m; draft 3 m.

Type: Towing. MMSI: 367512920.

Date/timePositionNaut miles runAvg speedWind from/ knotsBaromVisibWave heightAir tempDewpointWater temp
2017-Nov-23 22:39N 29°47' W 095°06'0 0.1
2017-Nov-23 22:26N 29°47' W 095°06'0 0.0
2017-Nov-23 21:38N 29°47' W 095°06'0 0.0
2017-Nov-23 19:27N 29°47' W 095°06'1 1.7
2017-Nov-23 19:00N 29°47' W 095°05'1 1.5
2017-Nov-23 18:13N 29°46' W 095°05'2 5.1
2017-Nov-23 17:55N 29°45' W 095°06'2 4.3
2017-Nov-23 17:29N 29°44' W 095°08'0 0.0
2017-Nov-22 22:58N 29°44' W 095°08'0 0.5
2017-Nov-22 22:30N 29°44' W 095°08'0 0.0
2017-Nov-22 22:00N 29°44' W 095°08'0 0.0
2017-Nov-22 21:30N 29°44' W 095°08'0 0.0
2017-Nov-22 21:00N 29°44' W 095°08'0 0.0
2017-Nov-22 20:30N 29°44' W 095°08'1 2.5
2017-Nov-22 20:00N 29°44' W 095°07'  
2017-Nov-19 22:40N 29°46' W 095°05'1 1.4
2017-Nov-19 22:17N 29°46' W 095°05'2 7.3
2017-Nov-19 22:00N 29°44' W 095°07'5 2.5
2017-Nov-19 20:08N 29°45' W 095°12'0 0.0
2017-Nov-19 19:49N 29°45' W 095°12'0 0.0
2017-Nov-19 18:56N 29°45' W 095°12'1 0.1
2017-Nov-18 23:23N 29°45' W 095°11'2 3.5
2017-Nov-18 22:54N 29°44' W 095°09'2 3.6
2017-Nov-18 22:21N 29°44' W 095°07'3 0.4
2017-Nov-18 14:53N 29°47' W 095°05'0 0.0
2017-Nov-18 13:51N 29°47' W 095°05'2 0.2
2017-Nov-18 04:03N 29°45' W 095°06'2 0.1
2017-Nov-17 06:37N 29°44' W 095°08'0 1.3
2017-Nov-17 06:23N 29°44' W 095°08'0 0.5
2017-Nov-17 06:00N 29°44' W 095°08'0 0.0
2017-Nov-17 05:30N 29°44' W 095°08'0 0.0
2017-Nov-17 05:00N 29°44' W 095°08'0 0.0
2017-Nov-17 04:30N 29°44' W 095°08'0 0.0
2017-Nov-17 04:00N 29°44' W 095°08'0 0.0
2017-Nov-17 03:30N 29°44' W 095°08'0 0.0
2017-Nov-17 03:00N 29°44' W 095°08'0 0.0
2017-Nov-17 02:30N 29°44' W 095°08'0 0.0
2017-Nov-17 01:57N 29°44' W 095°08'0 0.0
2017-Nov-17 01:23N 29°44' W 095°08'0 0.0
2017-Nov-17 01:00N 29°44' W 095°08'0 0.0
2017-Nov-17 00:30N 29°44' W 095°08'0 0.0
2017-Nov-17 00:00N 29°44' W 095°08'0 0.5
2017-Nov-16 23:30N 29°44' W 095°08'0 0.5
2017-Nov-16 23:00N 29°44' W 095°08'0 0.0
2017-Nov-16 22:30N 29°44' W 095°08'0 0.0
2017-Nov-16 22:00N 29°44' W 095°08'0 0.0
2017-Nov-16 21:30N 29°44' W 095°08'0 0.0
2017-Nov-16 21:00N 29°44' W 095°08'0 0.0
2017-Nov-16 20:30N 29°44' W 095°08'0 0.0
2017-Nov-16 20:00N 29°44' W 095°08'0 0.0
2017-Nov-16 19:30N 29°44' W 095°08'0 0.0
2017-Nov-16 19:00N 29°44' W 095°08'0 0.0
2017-Nov-16 18:30N 29°44' W 095°08'0 0.0
2017-Nov-16 18:00N 29°44' W 095°08'0 0.0
2017-Nov-16 17:30N 29°44' W 095°08'0 0.0
2017-Nov-16 17:00N 29°44' W 095°08'0 0.0
2017-Nov-16 16:30N 29°44' W 095°08'0 0.0
2017-Nov-16 16:00N 29°44' W 095°08'0 0.0
2017-Nov-16 15:30N 29°44' W 095°08'0 0.0
2017-Nov-16 15:00N 29°44' W 095°08'0 0.0
2017-Nov-16 14:30N 29°44' W 095°08'0 0.0
2017-Nov-16 14:00N 29°44' W 095°08'0 0.0
2017-Nov-16 13:30N 29°44' W 095°08'0 0.0
2017-Nov-16 13:00N 29°44' W 095°08'0 0.0
2017-Nov-16 12:29N 29°44' W 095°08'0 0.0
2017-Nov-16 12:00N 29°44' W 095°08'0 0.0
2017-Nov-16 11:30N 29°44' W 095°08'0 0.0
2017-Nov-16 11:00N 29°44' W 095°08'0 0.0
2017-Nov-16 10:30N 29°44' W 095°08'0 0.0
2017-Nov-16 10:00N 29°44' W 095°08'0 0.0
2017-Nov-16 09:30N 29°44' W 095°08'0 0.0
2017-Nov-16 09:00N 29°44' W 095°08'0 0.0
2017-Nov-16 08:30N 29°44' W 095°08'0 0.0
2017-Nov-16 08:00N 29°44' W 095°08'0 0.0
2017-Nov-16 07:30N 29°44' W 095°08'0 0.0
2017-Nov-16 07:00N 29°44' W 095°08'0 0.0
2017-Nov-16 06:30N 29°44' W 095°08'0 0.0
2017-Nov-16 06:00N 29°44' W 095°08'0 0.0
2017-Nov-16 05:30N 29°44' W 095°08'0 0.0
2017-Nov-16 05:00N 29°44' W 095°08'0 0.0
2017-Nov-16 04:30N 29°44' W 095°08'0 0.0
2017-Nov-16 04:00N 29°44' W 095°08'0 0.0
2017-Nov-16 03:30N 29°44' W 095°08'0 0.0
2017-Nov-16 03:00N 29°44' W 095°08'0 0.0
2017-Nov-16 02:30N 29°44' W 095°08'0 0.0
2017-Nov-16 02:00N 29°44' W 095°08'0 0.0
2017-Nov-16 01:30N 29°44' W 095°08'0 0.0
2017-Nov-16 01:00N 29°44' W 095°08'0 0.0
2017-Nov-15 12:27N 29°44' W 095°08'3 6.4
2017-Nov-15 12:00N 29°46' W 095°05'2 3.2
2017-Nov-15 11:27N 29°47' W 095°05'1 1.2
2017-Nov-15 10:58N 29°47' W 095°05'0 0.0
2017-Nov-13 23:56N 29°47' W 095°06'  

Dump ship's entire track history